Quetta Weather



Quetta's Current Weather

Temprature 21.05o clear sky

clear sky

Rain: 0 %

Min Temprature21.05o
Max Temprature21.05o
Humidity42
Wind Speed0.49 m/h
Sun Rise06:03:31
Sun Set19:06:18
Current Time: 23-Aug-2019 06:20:34
Lat/Lon: 30.19, 67.02




Quetta's Geo Location



Quetta's Weather Forecast

Time Overall Temp Min Temp Max Temp Humidity Wind Speed Rain
23-Aug-2019 (Fri)
08:00:00 clear sky 24.780 24.777 24.780 26 0.49 m/h 0 %
11:00:00 clear sky 28.450 28.450 28.450 15 2.55 m/h 0 %
14:00:00 clear sky 30.830 30.830 30.831 9 1.65 m/h 0 %
17:00:00 clear sky 31.710 31.710 31.711 9 3.23 m/h 0 %
20:00:00 clear sky 28.950 28.950 28.950 12 3.35 m/h 0 %
23:00:00 clear sky 25.942 25.942 25.942 13 1.97 m/h 0 %
24-Aug-2019 (Sat)
02:00:00 clear sky 23.731 23.731 23.731 14 1.34 m/h 0 %
05:00:00 clear sky 21.355 21.355 21.355 20 0.59 m/h 0 %
08:00:00 clear sky 25.107 25.107 25.107 21 0.76 m/h 0 %
11:00:00 clear sky 29.269 29.269 29.269 11 2.65 m/h 0 %
14:00:00 clear sky 31.369 31.369 31.369 8 2.07 m/h 0 %
17:00:00 clear sky 32.223 32.223 32.223 8 3.98 m/h 0 %
20:00:00 clear sky 28.550 28.550 28.550 10 5.14 m/h 0 %
23:00:00 clear sky 26.169 26.169 26.169 12 2.38 m/h 0 %
25-Aug-2019 (Sun)
02:00:00 clear sky 23.231 23.231 23.231 16 1.57 m/h 0 %
05:00:00 clear sky 21.457 21.457 21.457 31 1.03 m/h 0 %
08:00:00 clear sky 24.914 24.914 24.914 29 1.02 m/h 0 %
11:00:00 clear sky 29.316 29.316 29.316 16 2.07 m/h 0 %
14:00:00 clear sky 31.850 31.850 31.850 10 3.47 m/h 0 %
17:00:00 clear sky 32.350 32.350 32.350 9 4.15 m/h 0 %
20:00:00 clear sky 28.781 28.781 28.781 11 4 m/h 0 %
23:00:00 clear sky 25.711 25.711 25.711 15 1.49 m/h 0 %
26-Aug-2019 (Mon)
02:00:00 clear sky 23.365 23.365 23.365 24 0.53 m/h 0 %
05:00:00 clear sky 22.250 22.250 22.250 42 1.69 m/h 0 %
08:00:00 clear sky 25.067 25.067 25.067 32 0.44 m/h 0 %
11:00:00 clear sky 29.172 29.172 29.172 19 2.52 m/h 0 %
14:00:00 clear sky 31.784 31.784 31.784 13 3.53 m/h 0 %
17:00:00 clear sky 32.020 32.020 32.020 13 2.26 m/h 0 %
20:00:00 few clouds 29.372 29.372 29.372 11 4.17 m/h 0 %
23:00:00 clear sky 26.514 26.514 26.514 12 2.15 m/h 0 %
27-Aug-2019 (Tue)
02:00:00 clear sky 23.816 23.816 23.816 15 1.34 m/h 0 %
05:00:00 clear sky 21.550 21.550 21.550 17 0.11 m/h 0 %
08:00:00 clear sky 26.435 26.435 26.435 11 0.67 m/h 0 %
11:00:00 clear sky 30.636 30.636 30.636 9 1.76 m/h 0 %
14:00:00 clear sky 32.636 32.636 32.636 8 1.26 m/h 0 %
17:00:00 clear sky 33.565 33.565 33.565 7 2.76 m/h 0 %
20:00:00 clear sky 30.050 30.050 30.050 10 2.66 m/h 0 %
23:00:00 clear sky 27.650 27.650 27.650 12 2.35 m/h 0 %
28-Aug-2019 (Wed)
02:00:00 clear sky 24.257 24.257 24.257 16 0.63 m/h 0 %
05:00:00 clear sky 22.672 22.672 22.672 29 1.52 m/h 0 %


Quetta's Tourist Spots

Historical Places in Quetta

Famous Cities (61)